sensor_id;sensor_type;location;lat;lon;timestamp;pressure;altitude;pressure_sealevel;temperature;humidity
25947;BME280;13745;51.470;9.894;2023-03-01T00:01:00;100705.25;;;-0.16;46.84
25947;BME280;13745;51.470;9.894;2023-03-01T00:03:46;100700.91;;;-0.17;46.39
25947;BME280;13745;51.470;9.894;2023-03-01T00:06:32;100701.56;;;-0.21;46.20
25947;BME280;13745;51.470;9.894;2023-03-01T00:09:17;100698.63;;;-0.29;47.04
25947;BME280;13745;51.470;9.894;2023-03-01T00:12:02;100701.03;;;-0.32;46.64
25947;BME280;13745;51.470;9.894;2023-03-01T00:14:47;100695.06;;;-0.32;46.65
25947;BME280;13745;51.470;9.894;2023-03-01T00:17:32;100689.00;;;-0.34;47.39
25947;BME280;13745;51.470;9.894;2023-03-01T00:20:17;100700.00;;;-0.35;47.27
25947;BME280;13745;51.470;9.894;2023-03-01T00:23:03;100692.28;;;-0.37;46.79
25947;BME280;13745;51.470;9.894;2023-03-01T00:25:48;100690.66;;;-0.35;46.89
25947;BME280;13745;51.470;9.894;2023-03-01T00:28:33;100695.63;;;-0.38;46.42
25947;BME280;13745;51.470;9.894;2023-03-01T00:31:18;100694.69;;;-0.40;46.76
25947;BME280;13745;51.470;9.894;2023-03-01T00:34:04;100697.16;;;-0.41;46.54
25947;BME280;13745;51.470;9.894;2023-03-01T00:36:49;100700.25;;;-0.47;46.41
25947;BME280;13745;51.470;9.894;2023-03-01T00:39:36;100710.34;;;-0.48;46.76
25947;BME280;13745;51.470;9.894;2023-03-01T00:42:20;100705.25;;;-0.48;46.41
25947;BME280;13745;51.470;9.894;2023-03-01T00:45:06;100709.28;;;-0.52;46.34
25947;BME280;13745;51.470;9.894;2023-03-01T00:47:52;100712.56;;;-0.54;46.62
25947;BME280;13745;51.470;9.894;2023-03-01T00:50:37;100710.03;;;-0.54;46.02
25947;BME280;13745;51.470;9.894;2023-03-01T00:53:21;100710.75;;;-0.57;46.94
25947;BME280;13745;51.470;9.894;2023-03-01T00:56:09;100715.66;;;-0.60;46.68
25947;BME280;13745;51.470;9.894;2023-03-01T00:58:55;100713.75;;;-0.64;46.60
25947;BME280;13745;51.470;9.894;2023-03-01T01:01:39;100711.91;;;-0.67;46.53
25947;BME280;13745;51.470;9.894;2023-03-01T01:04:24;100706.81;;;-0.67;46.96
25947;BME280;13745;51.470;9.894;2023-03-01T01:07:09;100707.63;;;-0.68;46.81
25947;BME280;13745;51.470;9.894;2023-03-01T01:09:55;100693.94;;;-0.70;46.90
25947;BME280;13745;51.470;9.894;2023-03-01T01:12:41;100704.91;;;-0.71;46.54
25947;BME280;13745;51.470;9.894;2023-03-01T01:15:26;100694.66;;;-0.72;46.70
25947;BME280;13745;51.470;9.894;2023-03-01T01:18:11;100678.19;;;-0.79;46.65
25947;BME280;13745;51.470;9.894;2023-03-01T01:20:56;100677.06;;;-0.84;47.04
25947;BME280;13745;51.470;9.894;2023-03-01T01:23:41;100671.09;;;-0.85;46.91
25947;BME280;13745;51.470;9.894;2023-03-01T01:26:27;100668.41;;;-0.88;46.49
25947;BME280;13745;51.470;9.894;2023-03-01T01:29:14;100675.97;;;-0.89;46.86
25947;BME280;13745;51.470;9.894;2023-03-01T01:31:59;100679.19;;;-0.92;46.35
25947;BME280;13745;51.470;9.894;2023-03-01T01:34:44;100670.53;;;-0.95;46.93
25947;BME280;13745;51.470;9.894;2023-03-01T01:37:30;100665.44;;;-0.95;46.82
25947;BME280;13745;51.470;9.894;2023-03-01T01:40:16;100669.66;;;-0.96;46.79
25947;BME280;13745;51.470;9.894;2023-03-01T01:43:00;100664.50;;;-0.97;46.81
25947;BME280;13745;51.470;9.894;2023-03-01T01:45:47;100661.69;;;-1.02;46.66
25947;BME280;13745;51.470;9.894;2023-03-01T01:48:34;100655.66;;;-1.04;46.02
25947;BME280;13745;51.470;9.894;2023-03-01T01:51:24;100660.59;;;-1.07;46.23
25947;BME280;13745;51.470;9.894;2023-03-01T01:54:11;100652.09;;;-1.07;46.56
25947;BME280;13745;51.470;9.894;2023-03-01T01:56:59;100653.84;;;-1.06;46.05
25947;BME280;13745;51.470;9.894;2023-03-01T01:59:48;100652.97;;;-1.07;46.45
25947;BME280;13745;51.470;9.894;2023-03-01T02:02:36;100659.78;;;-1.06;46.79
25947;BME280;13745;51.470;9.894;2023-03-01T02:05:22;100654.63;;;-1.07;46.39
25947;BME280;13745;51.470;9.894;2023-03-01T02:08:10;100646.88;;;-1.09;46.03
25947;BME280;13745;51.470;9.894;2023-03-01T02:10:56;100639.09;;;-1.12;46.15
25947;BME280;13745;51.470;9.894;2023-03-01T02:13:43;100639.09;;;-1.12;46.61
25947;BME280;13745;51.470;9.894;2023-03-01T02:16:28;100635.53;;;-1.16;46.70
25947;BME280;13745;51.470;9.894;2023-03-01T02:19:18;100637.97;;;-1.17;46.16
25947;BME280;13745;51.470;9.894;2023-03-01T02:22:10;100631.06;;;-1.20;46.11
25947;BME280;13745;51.470;9.894;2023-03-01T02:25:01;100630.97;;;-1.21;46.10
25947;BME280;13745;51.470;9.894;2023-03-01T02:27:52;100636.00;;;-1.23;46.22
25947;BME280;13745;51.470;9.894;2023-03-01T02:30:41;100625.47;;;-1.29;46.37
25947;BME280;13745;51.470;9.894;2023-03-01T02:33:47;100625.22;;;-1.33;46.62
25947;BME280;13745;51.470;9.894;2023-03-01T02:36:35;100623.66;;;-1.31;46.26
25947;BME280;13745;51.470;9.894;2023-03-01T02:39:22;100618.66;;;-1.30;46.25
25947;BME280;13745;51.470;9.894;2023-03-01T02:42:09;100618.66;;;-1.30;46.34
25947;BME280;13745;51.470;9.894;2023-03-01T02:44:55;100620.56;;;-1.26;47.09
25947;BME280;13745;51.470;9.894;2023-03-01T02:47:42;100616.34;;;-1.25;47.04
25947;BME280;13745;51.470;9.894;2023-03-01T02:50:37;100616.25;;;-1.27;46.57
25947;BME280;13745;51.470;9.894;2023-03-01T02:53:28;100607.34;;;-1.35;46.53
25947;BME280;13745;51.470;9.894;2023-03-01T02:56:17;100615.44;;;-1.42;47.01
25947;BME280;13745;51.470;9.894;2023-03-01T02:59:02;100615.44;;;-1.42;46.98
25947;BME280;13745;51.470;9.894;2023-03-01T03:01:47;100618.94;;;-1.40;46.67
25947;BME280;13745;51.470;9.894;2023-03-01T03:04:35;100613.94;;;-1.38;46.92
25947;BME280;13745;51.470;9.894;2023-03-01T03:07:20;100619.03;;;-1.38;46.72
25947;BME280;13745;51.470;9.894;2023-03-01T03:10:08;100619.09;;;-1.37;47.01
25947;BME280;13745;51.470;9.894;2023-03-01T03:12:55;100618.31;;;-1.36;46.73
25947;BME280;13745;51.470;9.894;2023-03-01T03:15:41;100614.97;;;-1.35;46.42
25947;BME280;13745;51.470;9.894;2023-03-01T03:18:26;100611.41;;;-1.38;46.73
25947;BME280;13745;51.470;9.894;2023-03-01T03:21:13;100610.34;;;-1.42;46.52
25947;BME280;13745;51.470;9.894;2023-03-01T03:23:58;100604.31;;;-1.44;47.26
25947;BME280;13745;51.470;9.894;2023-03-01T03:26:43;100611.00;;;-1.46;46.51
25947;BME280;13745;51.470;9.894;2023-03-01T03:29:28;100605.81;;;-1.48;47.19
25947;BME280;13745;51.470;9.894;2023-03-01T03:32:13;100601.63;;;-1.47;46.61
25947;BME280;13745;51.470;9.894;2023-03-01T03:34:57;100595.53;;;-1.49;47.04
25947;BME280;13745;51.470;9.894;2023-03-01T03:37:44;100598.72;;;-1.53;46.61
25947;BME280;13745;51.470;9.894;2023-03-01T03:40:48;100581.47;;;-1.59;46.76
25947;BME280;13745;51.470;9.894;2023-03-01T03:43:34;100586.25;;;-1.65;46.81
25947;BME280;13745;51.470;9.894;2023-03-01T03:46:19;100581.69;;;-1.71;47.12
25947;BME280;13745;51.470;9.894;2023-03-01T03:49:04;100584.22;;;-1.71;47.07
25947;BME280;13745;51.470;9.894;2023-03-01T03:51:49;100585.63;;;-1.76;47.12
25947;BME280;13745;51.470;9.894;2023-03-01T03:54:35;100580.41;;;-1.79;47.58
25947;BME280;13745;51.470;9.894;2023-03-01T03:57:20;100577.06;;;-1.78;47.19
25947;BME280;13745;51.470;9.894;2023-03-01T04:00:07;100577.06;;;-1.78;47.29
25947;BME280;13745;51.470;9.894;2023-03-01T04:02:56;100577.84;;;-1.79;46.89
25947;BME280;13745;51.470;9.894;2023-03-01T04:05:41;100581.09;;;-1.81;47.41
25947;BME280;13745;51.470;9.894;2023-03-01T04:08:26;100584.41;;;-1.82;46.77
25947;BME280;13745;51.470;9.894;2023-03-01T04:11:12;100583.53;;;-1.83;47.26
25947;BME280;13745;51.470;9.894;2023-03-01T04:14:13;100587.59;;;-1.86;47.14
25947;BME280;13745;51.470;9.894;2023-03-01T04:16:57;100591.00;;;-1.86;47.21
25947;BME280;13745;51.470;9.894;2023-03-01T04:19:42;100586.78;;;-1.85;47.04
25947;BME280;13745;51.470;9.894;2023-03-01T04:22:27;100591.16;;;-1.83;47.43
25947;BME280;13745;51.470;9.894;2023-03-01T04:25:13;100596.25;;;-1.83;46.98
25947;BME280;13745;51.470;9.894;2023-03-01T04:28:00;100602.91;;;-1.85;46.68
25947;BME280;13745;51.470;9.894;2023-03-01T04:30:45;100596.00;;;-1.87;47.41
25947;BME280;13745;51.470;9.894;2023-03-01T04:33:30;100605.28;;;-1.88;47.23
25947;BME280;13745;51.470;9.894;2023-03-01T04:36:15;100593.19;;;-1.92;47.03
25947;BME280;13745;51.470;9.894;2023-03-01T04:39:00;100598.81;;;-1.98;47.18
25947;BME280;13745;51.470;9.894;2023-03-01T04:41:55;100584.25;;;-2.00;47.06
25947;BME280;13745;51.470;9.894;2023-03-01T04:44:41;100586.72;;;-2.02;47.13
25947;BME280;13745;51.470;9.894;2023-03-01T04:47:26;100582.97;;;-2.08;46.73
25947;BME280;13745;51.470;9.894;2023-03-01T04:50:12;100588.75;;;-2.11;47.09
25947;BME280;13745;51.470;9.894;2023-03-01T04:52:57;100586.84;;;-2.15;47.32
25947;BME280;13745;51.470;9.894;2023-03-01T04:55:43;100585.06;;;-2.16;47.38
25947;BME280;13745;51.470;9.894;2023-03-01T04:58:28;100588.41;;;-2.17;47.21
25947;BME280;13745;51.470;9.894;2023-03-01T05:01:14;100588.22;;;-2.20;47.34
25947;BME280;13745;51.470;9.894;2023-03-01T05:04:00;100584.53;;;-2.25;47.04
25947;BME280;13745;51.470;9.894;2023-03-01T05:06:46;100571.59;;;-2.30;47.41
25947;BME280;13745;51.470;9.894;2023-03-01T05:09:31;100579.75;;;-2.35;47.47
25947;BME280;13745;51.470;9.894;2023-03-01T05:12:16;100582.19;;;-2.37;47.32
25947;BME280;13745;51.470;9.894;2023-03-01T05:15:01;100575.53;;;-2.35;47.35
25947;BME280;13745;51.470;9.894;2023-03-01T05:17:51;100580.88;;;-2.30;47.26
25947;BME280;13745;51.470;9.894;2023-03-01T05:20:37;100582.63;;;-2.29;47.38
25947;BME280;13745;51.470;9.894;2023-03-01T05:23:22;100586.13;;;-2.27;47.03
25947;BME280;13745;51.470;9.894;2023-03-01T05:26:08;100582.72;;;-2.28;47.15
25947;BME280;13745;51.470;9.894;2023-03-01T05:28:53;100587.00;;;-2.27;47.62
25947;BME280;13745;51.470;9.894;2023-03-01T05:31:41;100584.53;;;-2.25;47.14
25947;BME280;13745;51.470;9.894;2023-03-01T05:34:28;100590.50;;;-2.24;47.38
25947;BME280;13745;51.470;9.894;2023-03-01T05:37:14;100587.97;;;-2.24;47.49
25947;BME280;13745;51.470;9.894;2023-03-01T05:39:59;100576.78;;;-2.28;47.53
25947;BME280;13745;51.470;9.894;2023-03-01T05:42:45;100575.72;;;-2.32;48.07
25947;BME280;13745;51.470;9.894;2023-03-01T05:45:30;100573.78;;;-2.36;47.78
25947;BME280;13745;51.470;9.894;2023-03-01T05:48:15;100579.38;;;-2.41;47.93
25947;BME280;13745;51.470;9.894;2023-03-01T05:51:04;100581.59;;;-2.47;48.19
25947;BME280;13745;51.470;9.894;2023-03-01T05:53:49;100583.75;;;-2.53;48.08
25947;BME280;13745;51.470;9.894;2023-03-01T05:56:34;100580.78;;;-2.61;48.26
25947;BME280;13745;51.470;9.894;2023-03-01T05:59:20;100576.84;;;-2.56;48.60
25947;BME280;13745;51.470;9.894;2023-03-01T06:02:05;100568.03;;;-2.48;49.36
25947;BME280;13745;51.470;9.894;2023-03-01T06:04:50;100571.09;;;-2.39;49.89
25947;BME280;13745;51.470;9.894;2023-03-01T06:07:36;100566.44;;;-2.31;50.62
25947;BME280;13745;51.470;9.894;2023-03-01T06:10:22;100573.72;;;-2.22;50.70
25947;BME280;13745;51.470;9.894;2023-03-01T06:13:07;100576.69;;;-2.15;51.00
25947;BME280;13745;51.470;9.894;2023-03-01T06:15:52;100580.25;;;-2.11;51.52
25947;BME280;13745;51.470;9.894;2023-03-01T06:18:38;100578.75;;;-2.08;51.78
25947;BME280;13745;51.470;9.894;2023-03-01T06:21:23;100585.63;;;-2.07;51.70
25947;BME280;13745;51.470;9.894;2023-03-01T06:24:09;100578.88;;;-2.06;51.91
25947;BME280;13745;51.470;9.894;2023-03-01T06:26:54;100579.91;;;-2.03;52.67
25947;BME280;13745;51.470;9.894;2023-03-01T06:29:40;100578.22;;;-2.02;52.91
25947;BME280;13745;51.470;9.894;2023-03-01T06:32:25;100573.16;;;-2.02;52.82
25947;BME280;13745;51.470;9.894;2023-03-01T06:35:11;100575.84;;;-1.99;53.04
25947;BME280;13745;51.470;9.894;2023-03-01T06:37:57;100571.84;;;-1.95;53.27
25947;BME280;13745;51.470;9.894;2023-03-01T06:40:45;100571.19;;;-1.91;53.34
25947;BME280;13745;51.470;9.894;2023-03-01T06:43:30;100557.72;;;-1.90;53.68
25947;BME280;13745;51.470;9.894;2023-03-01T06:46:15;100565.69;;;-1.84;53.46
25947;BME280;13745;51.470;9.894;2023-03-01T06:49:00;100561.72;;;-1.79;53.79
25947;BME280;13745;51.470;9.894;2023-03-01T06:51:48;100573.13;;;-1.73;54.23
25947;BME280;13745;51.470;9.894;2023-03-01T06:54:33;100563.81;;;-1.72;54.03
25947;BME280;13745;51.470;9.894;2023-03-01T06:57:19;100570.88;;;-1.66;54.51
25947;BME280;13745;51.470;9.894;2023-03-01T07:00:06;100568.69;;;-1.60;53.95
25947;BME280;13745;51.470;9.894;2023-03-01T07:02:52;100567.88;;;-1.59;54.06
25947;BME280;13745;51.470;9.894;2023-03-01T07:05:37;100567.88;;;-1.59;54.51
25947;BME280;13745;51.470;9.894;2023-03-01T07:08:22;100571.16;;;-1.62;55.31
25947;BME280;13745;51.470;9.894;2023-03-01T07:11:07;100574.56;;;-1.61;54.64
25947;BME280;13745;51.470;9.894;2023-03-01T07:13:53;100578.13;;;-1.58;55.02
25947;BME280;13745;51.470;9.894;2023-03-01T07:16:39;100578.25;;;-1.56;55.37
25947;BME280;13745;51.470;9.894;2023-03-01T07:19:24;100580.16;;;-1.52;55.70
25947;BME280;13745;51.470;9.894;2023-03-01T07:22:10;100570.25;;;-1.48;55.44
25947;BME280;13745;51.470;9.894;2023-03-01T07:24:55;100567.13;;;-1.42;55.46
25947;BME280;13745;51.470;9.894;2023-03-01T07:27:40;100565.72;;;-1.37;56.11
25947;BME280;13745;51.470;9.894;2023-03-01T07:30:27;100569.28;;;-1.33;56.28
25947;BME280;13745;51.470;9.894;2023-03-01T07:33:12;100566.06;;;-1.31;56.21
25947;BME280;13745;51.470;9.894;2023-03-01T07:35:57;100568.81;;;-1.26;56.30
25947;BME280;13745;51.470;9.894;2023-03-01T07:38:42;100557.84;;;-1.25;56.69
25947;BME280;13745;51.470;9.894;2023-03-01T07:41:27;100557.56;;;-1.31;56.44
25947;BME280;13745;51.470;9.894;2023-03-01T07:44:12;100561.25;;;-1.25;56.06
25947;BME280;13745;51.470;9.894;2023-03-01T07:47:00;100554.91;;;-1.17;56.41
25947;BME280;13745;51.470;9.894;2023-03-01T07:49:45;100551.97;;;-1.08;56.66
25947;BME280;13745;51.470;9.894;2023-03-01T07:52:30;100559.13;;;-1.01;56.44
25947;BME280;13745;51.470;9.894;2023-03-01T07:55:16;100556.19;;;-0.92;57.08
25947;BME280;13745;51.470;9.894;2023-03-01T07:58:01;100563.53;;;-0.82;56.71
25947;BME280;13745;51.470;9.894;2023-03-01T08:00:46;100562.06;;;-0.77;56.64
25947;BME280;13745;51.470;9.894;2023-03-01T08:03:33;100551.31;;;-0.71;56.97
25947;BME280;13745;51.470;9.894;2023-03-01T08:06:18;100561.09;;;-0.63;56.88
25947;BME280;13745;51.470;9.894;2023-03-01T08:09:03;100559.94;;;-0.51;56.91
25947;BME280;13745;51.470;9.894;2023-03-01T08:11:48;100552.28;;;-0.35;56.76
25947;BME280;13745;51.470;9.894;2023-03-01T08:14:33;100548.16;;;-0.15;57.18
25947;BME280;13745;51.470;9.894;2023-03-01T08:17:18;100545.00;;;0.08;57.67
25947;BME280;13745;51.470;9.894;2023-03-01T08:20:05;100535.84;;;0.30;56.98
25947;BME280;13745;51.470;9.894;2023-03-01T08:22:51;100542.06;;;0.54;57.51
25947;BME280;13745;51.470;9.894;2023-03-01T08:28:51;100526.56;;;1.07;57.64
25947;BME280;13745;51.470;9.894;2023-03-01T08:31:38;100527.22;;;1.42;57.02
25947;BME280;13745;51.470;9.894;2023-03-01T08:34:24;100524.41;;;1.78;56.19
25947;BME280;13745;51.470;9.894;2023-03-01T08:37:10;100525.06;;;2.15;56.46
25947;BME280;13745;51.470;9.894;2023-03-01T08:39:55;100517.09;;;2.52;56.39
25947;BME280;13745;51.470;9.894;2023-03-01T08:42:40;100523.66;;;2.92;55.87
25947;BME280;13745;51.470;9.894;2023-03-01T08:45:26;100522.28;;;3.26;55.78
25947;BME280;13745;51.470;9.894;2023-03-01T08:48:11;100515.69;;;3.58;55.61
25947;BME280;13745;51.470;9.894;2023-03-01T08:50:56;100510.31;;;4.04;56.43
25947;BME280;13745;51.470;9.894;2023-03-01T08:53:42;100507.75;;;4.61;56.60
25947;BME280;13745;51.470;9.894;2023-03-01T08:56:28;100505.22;;;5.24;56.60
25947;BME280;13745;51.470;9.894;2023-03-01T08:59:15;100496.69;;;5.93;56.54
25947;BME280;13745;51.470;9.894;2023-03-01T09:02:00;100498.97;;;6.58;56.49
25947;BME280;13745;51.470;9.894;2023-03-01T09:04:45;100486.44;;;7.20;56.14
25947;BME280;13745;51.470;9.894;2023-03-01T09:07:30;100489.91;;;7.70;55.49
25947;BME280;13745;51.470;9.894;2023-03-01T09:10:17;100483.69;;;8.16;53.91
25947;BME280;13745;51.470;9.894;2023-03-01T09:13:02;100484.25;;;8.55;53.32
25947;BME280;13745;51.470;9.894;2023-03-01T09:15:47;100479.41;;;8.82;52.84
25947;BME280;13745;51.470;9.894;2023-03-01T09:18:33;100477.13;;;9.10;51.63
25947;BME280;13745;51.470;9.894;2023-03-01T09:21:19;100481.75;;;9.38;50.59
25947;BME280;13745;51.470;9.894;2023-03-01T09:24:05;100483.75;;;9.68;49.67
25947;BME280;13745;51.470;9.894;2023-03-01T09:26:54;100477.13;;;10.13;48.99
25947;BME280;13745;51.470;9.894;2023-03-01T09:29:40;100467.91;;;10.67;47.95
25947;BME280;13745;51.470;9.894;2023-03-01T09:32:25;100458.59;;;11.39;47.59
25947;BME280;13745;51.470;9.894;2023-03-01T09:35:10;100461.09;;;12.40;46.78
25947;BME280;13745;51.470;9.894;2023-03-01T09:37:55;100459.41;;;13.78;46.08
25947;BME280;13745;51.470;9.894;2023-03-01T09:40:41;100450.56;;;15.35;45.03
25947;BME280;13745;51.470;9.894;2023-03-01T09:43:29;100453.63;;;16.99;43.47
25947;BME280;13745;51.470;9.894;2023-03-01T09:46:18;100456.34;;;18.35;42.18
25947;BME280;13745;51.470;9.894;2023-03-01T09:49:04;100449.66;;;19.70;40.56
25947;BME280;13745;51.470;9.894;2023-03-01T09:51:56;100450.13;;;21.02;38.83
25947;BME280;13745;51.470;9.894;2023-03-01T09:54:42;100439.72;;;22.26;37.70
25947;BME280;13745;51.470;9.894;2023-03-01T09:57:30;100440.50;;;23.41;36.45
25947;BME280;13745;51.470;9.894;2023-03-01T10:00:35;100435.88;;;24.33;35.66
25947;BME280;13745;51.470;9.894;2023-03-01T10:03:24;100437.78;;;25.11;33.65
25947;BME280;13745;51.470;9.894;2023-03-01T10:06:13;100425.84;;;25.94;32.77
25947;BME280;13745;51.470;9.894;2023-03-01T10:09:02;100430.75;;;26.73;31.93
25947;BME280;13745;51.470;9.894;2023-03-01T10:11:50;100416.38;;;27.71;30.86
25947;BME280;13745;51.470;9.894;2023-03-01T10:14:39;100414.16;;;28.54;29.96
25947;BME280;13745;51.470;9.894;2023-03-01T10:17:33;100405.00;;;29.43;29.78
25947;BME280;13745;51.470;9.894;2023-03-01T10:20:22;100407.28;;;30.17;28.74
25947;BME280;13745;51.470;9.894;2023-03-01T10:23:08;100402.91;;;30.84;28.03
25947;BME280;13745;51.470;9.894;2023-03-01T10:26:08;100384.06;;;31.49;28.17
25947;BME280;13745;51.470;9.894;2023-03-01T10:29:02;100386.91;;;32.51;26.80
25947;BME280;13745;51.470;9.894;2023-03-01T10:31:49;100379.28;;;33.25;26.10
25947;BME280;13745;51.470;9.894;2023-03-01T10:34:36;100376.13;;;34.34;25.55
25947;BME280;13745;51.470;9.894;2023-03-01T10:37:21;100376.00;;;35.27;24.37
25947;BME280;13745;51.470;9.894;2023-03-01T10:40:09;100368.13;;;35.95;24.11
25947;BME280;13745;51.470;9.894;2023-03-01T10:42:58;100365.84;;;36.84;23.37
25947;BME280;13745;51.470;9.894;2023-03-01T10:45:43;100369.13;;;37.61;22.84
25947;BME280;13745;51.470;9.894;2023-03-01T10:48:28;100362.59;;;38.11;22.31
25947;BME280;13745;51.470;9.894;2023-03-01T10:51:17;100365.38;;;38.82;22.21
25947;BME280;13745;51.470;9.894;2023-03-01T10:54:04;100358.59;;;39.46;21.59
25947;BME280;13745;51.470;9.894;2023-03-01T10:56:53;100358.72;;;39.91;21.31
25947;BME280;13745;51.470;9.894;2023-03-01T10:59:39;100353.56;;;40.40;20.93
25947;BME280;13745;51.470;9.894;2023-03-01T11:02:28;100347.19;;;41.26;21.13
25947;BME280;13745;51.470;9.894;2023-03-01T11:05:18;100342.22;;;41.79;20.50
25947;BME280;13745;51.470;9.894;2023-03-01T11:08:05;100346.81;;;42.14;19.82
25947;BME280;13745;51.470;9.894;2023-03-01T11:10:50;100351.56;;;42.46;20.26
25947;BME280;13745;51.470;9.894;2023-03-01T11:13:36;100344.97;;;42.75;19.92
25947;BME280;13745;51.470;9.894;2023-03-01T11:16:26;100338.75;;;43.21;19.22
25947;BME280;13745;51.470;9.894;2023-03-01T11:19:17;100342.72;;;43.25;19.73
25947;BME280;13745;51.470;9.894;2023-03-01T11:22:07;100342.97;;;43.57;19.33
25947;BME280;13745;51.470;9.894;2023-03-01T11:24:56;100340.75;;;44.12;19.53
25947;BME280;13745;51.470;9.894;2023-03-01T11:27:44;100330.16;;;44.35;18.60
25947;BME280;13745;51.470;9.894;2023-03-01T11:30:33;100336.75;;;44.66;18.78
25947;BME280;13745;51.470;9.894;2023-03-01T11:33:28;100334.78;;;44.79;18.44
25947;BME280;13745;51.470;9.894;2023-03-01T11:36:24;100340.81;;;44.95;18.35
25947;BME280;13745;51.470;9.894;2023-03-01T11:39:20;100333.81;;;45.24;18.37
25947;BME280;13745;51.470;9.894;2023-03-01T11:42:13;100332.78;;;45.50;18.68
25947;BME280;13745;51.470;9.894;2023-03-01T11:44:59;100334.44;;;45.26;18.06
25947;BME280;13745;51.470;9.894;2023-03-01T11:47:58;100328.03;;;45.14;18.03
25947;BME280;13745;51.470;9.894;2023-03-01T11:50:48;100313.44;;;45.20;18.02
25947;BME280;13745;51.470;9.894;2023-03-01T11:53:48;100319.09;;;44.93;17.70
25947;BME280;13745;51.470;9.894;2023-03-01T11:56:40;100325.78;;;44.72;17.95
25947;BME280;13745;51.470;9.894;2023-03-01T11:59:45;100313.38;;;44.25;18.99
25947;BME280;13745;51.470;9.894;2023-03-01T12:02:43;100315.19;;;43.73;18.10
25947;BME280;13745;51.470;9.894;2023-03-01T12:08:54;100313.91;;;42.89;18.68
25947;BME280;13745;51.470;9.894;2023-03-01T12:12:02;100306.25;;;42.52;18.53
25947;BME280;13745;51.470;9.894;2023-03-01T12:15:06;100304.53;;;42.44;18.83
25947;BME280;13745;51.470;9.894;2023-03-01T12:18:09;100298.09;;;42.11;19.00
25947;BME280;13745;51.470;9.894;2023-03-01T12:21:03;100293.50;;;42.11;18.49
25947;BME280;13745;51.470;9.894;2023-03-01T12:24:10;100289.59;;;41.86;18.38
25947;BME280;13745;51.470;9.894;2023-03-01T12:27:14;100290.63;;;41.50;18.70
25947;BME280;13745;51.470;9.894;2023-03-01T12:30:19;100284.22;;;41.36;18.81
25947;BME280;13745;51.470;9.894;2023-03-01T12:33:17;100280.25;;;41.11;19.27
25947;BME280;13745;51.470;9.894;2023-03-01T12:39:43;100278.50;;;39.80;19.62
25947;BME280;13745;51.470;9.894;2023-03-01T12:42:40;100261.56;;;39.63;19.44
25947;BME280;13745;51.470;9.894;2023-03-01T12:45:57;100262.16;;;39.21;19.80
25947;BME280;13745;51.470;9.894;2023-03-01T12:48:55;100260.19;;;39.15;19.24
25947;BME280;13745;51.470;9.894;2023-03-01T12:51:51;100256.00;;;39.04;19.54
25947;BME280;13745;51.470;9.894;2023-03-01T12:54:38;100256.81;;;39.27;19.36
25947;BME280;13745;51.470;9.894;2023-03-01T12:57:27;100244.66;;;39.38;19.45
25947;BME280;13745;51.470;9.894;2023-03-01T13:00:26;100245.59;;;39.16;19.53
25947;BME280;13745;51.470;9.894;2023-03-01T13:03:20;100238.34;;;39.08;19.54
25947;BME280;13745;51.470;9.894;2023-03-01T13:06:12;100241.13;;;39.23;19.77
25947;BME280;13745;51.470;9.894;2023-03-01T13:09:06;100240.94;;;39.01;19.65
25947;BME280;13745;51.470;9.894;2023-03-01T13:11:56;100234.47;;;39.02;19.69
25947;BME280;13745;51.470;9.894;2023-03-01T13:14:45;100231.34;;;38.45;19.65
25947;BME280;13745;51.470;9.894;2023-03-01T13:17:33;100224.78;;;38.39;19.99
25947;BME280;13745;51.470;9.894;2023-03-01T13:20:31;100219.13;;;37.87;20.14
25947;BME280;13745;51.470;9.894;2023-03-01T13:23:25;100213.63;;;37.56;20.10
25947;BME280;13745;51.470;9.894;2023-03-01T13:26:13;100213.63;;;37.56;19.60
25947;BME280;13745;51.470;9.894;2023-03-01T13:28:58;100223.84;;;37.13;20.10
25947;BME280;13745;51.470;9.894;2023-03-01T13:31:59;100204.53;;;36.35;20.80
25947;BME280;13745;51.470;9.894;2023-03-01T13:34:54;100203.16;;;36.22;20.58
25947;BME280;13745;51.470;9.894;2023-03-01T13:37:41;100201.13;;;36.24;20.94
25947;BME280;13745;51.470;9.894;2023-03-01T13:40:57;100206.50;;;36.00;20.64
25947;BME280;13745;51.470;9.894;2023-03-01T13:43:44;100194.72;;;36.17;20.95
25947;BME280;13745;51.470;9.894;2023-03-01T13:46:32;100198.53;;;35.98;21.31
25947;BME280;13745;51.470;9.894;2023-03-01T13:49:20;100184.34;;;35.88;20.80
25947;BME280;13745;51.470;9.894;2023-03-01T13:52:06;100186.69;;;35.57;20.96
25947;BME280;13745;51.470;9.894;2023-03-01T13:54:53;100180.81;;;35.28;21.08
25947;BME280;13745;51.470;9.894;2023-03-01T13:57:38;100185.06;;;34.86;21.64
25947;BME280;13745;51.470;9.894;2023-03-01T14:00:26;100178.78;;;33.97;21.46
25947;BME280;13745;51.470;9.894;2023-03-01T14:03:14;100178.03;;;32.64;21.45
25947;BME280;13745;51.470;9.894;2023-03-01T14:06:03;100168.09;;;31.15;22.30
25947;BME280;13745;51.470;9.894;2023-03-01T14:09:00;100170.81;;;29.75;23.30
25947;BME280;13745;51.470;9.894;2023-03-01T14:12:02;100162.00;;;27.62;24.22
25947;BME280;13745;51.470;9.894;2023-03-01T14:14:55;100162.28;;;26.56;25.09
25947;BME280;13745;51.470;9.894;2023-03-01T14:17:48;100170.03;;;25.49;25.51
25947;BME280;13745;51.470;9.894;2023-03-01T14:20:40;100160.44;;;24.44;26.46
25947;BME280;13745;51.470;9.894;2023-03-01T14:23:26;100164.41;;;23.57;26.49
25947;BME280;13745;51.470;9.894;2023-03-01T14:26:11;100159.81;;;22.77;27.22
25947;BME280;13745;51.470;9.894;2023-03-01T14:28:57;100167.75;;;22.04;27.80
25947;BME280;13745;51.470;9.894;2023-03-01T14:31:43;100163.59;;;21.42;28.41
25947;BME280;13745;51.470;9.894;2023-03-01T14:34:28;100158.13;;;20.87;28.71
25947;BME280;13745;51.470;9.894;2023-03-01T14:37:21;100153.94;;;20.19;28.97
25947;BME280;13745;51.470;9.894;2023-03-01T14:40:19;100147.22;;;19.18;28.63
25947;BME280;13745;51.470;9.894;2023-03-01T14:43:08;100159.44;;;18.43;28.66
25947;BME280;13745;51.470;9.894;2023-03-01T14:45:55;100154.78;;;18.51;29.32
25947;BME280;13745;51.470;9.894;2023-03-01T14:48:41;100155.94;;;18.95;29.53